< < Back
Terminal Aerodrome Forecast


Current Version              Previous Versions:   1  2  3  4  5  6  7  8  9  

Terminal Aerodrome Forecast

553
FTUS42 KJAX 221500 AAA
TAFJAX
TAF AMD
KJAX 221509Z 2215/2312 04010KT P6SM VCSH OVC035
     FM221800 06010G15KT P6SM VCSH BKN025 OVC070
     FM222000 07013G22KT P6SM VCSH BKN020 OVC070
     FM230000 09010KT 5SM -RA BR OVC010 WS020/12040KT=



Latest METAR

853
SAUS80 KWBC 230300
MTRJAX
METAR KJAX 230256Z 12009KT 10SM FEW027 SCT038 OVC055 21/17 A3018 RMK AO2
SLP221 T02110172 55007


USA.gov is the U.S. government's official web portal to all federal, state and local government web resources and services.